createdAt,value
2018-02-25T00:00:06.652Z,50.06
2018-02-25T00:02:34.136Z,49.89
2018-02-25T00:05:01.745Z,50.02
2018-02-25T00:07:29.276Z,49.93
2018-02-25T00:09:56.763Z,49.93
2018-02-25T00:12:24.574Z,49.75
2018-02-25T00:14:52.055Z,49.85
2018-02-25T00:17:19.699Z,50.15
2018-02-25T00:19:47.214Z,50.01
2018-02-25T00:22:20.026Z,50.34
2018-02-25T00:24:47.514Z,50.35
2018-02-25T00:27:15.005Z,50.57
2018-02-25T00:29:42.599Z,50.48
2018-02-25T00:32:10.140Z,50.60
2018-02-25T00:34:37.701Z,50.47
2018-02-25T00:37:05.197Z,50.33
2018-02-25T00:39:32.684Z,50.66
2018-02-25T00:42:00.230Z,54.10
2018-02-25T00:44:27.753Z,53.41
2018-02-25T00:46:55.275Z,50.21
2018-02-25T00:49:22.764Z,50.12
2018-02-25T00:51:50.266Z,50.45
2018-02-25T00:54:18.198Z,50.38
2018-02-25T00:56:45.897Z,49.98
2018-02-25T00:59:13.561Z,50.15
2018-02-25T01:01:41.075Z,50.69
2018-02-25T01:04:08.568Z,50.35
2018-02-25T01:06:36.082Z,50.68
2018-02-25T01:09:03.916Z,50.71
2018-02-25T01:11:31.632Z,50.78
2018-02-25T01:13:59.254Z,51.43
2018-02-25T01:16:26.773Z,51.10
2018-02-25T01:18:54.258Z,51.01
2018-02-25T01:21:22.858Z,50.69
2018-02-25T01:23:50.717Z,50.81
2018-02-25T01:26:19.208Z,50.47
2018-02-25T01:28:46.814Z,51.03
2018-02-25T01:31:14.307Z,51.18
2018-02-25T01:33:41.774Z,51.21
2018-02-25T01:36:09.277Z,50.91
2018-02-25T01:38:36.762Z,50.85
2018-02-25T01:41:04.304Z,51.14
2018-02-25T01:43:31.750Z,52.07
2018-02-25T01:45:59.310Z,52.11
2018-02-25T01:48:26.790Z,52.19
2018-02-25T01:51:05.112Z,52.36
2018-02-25T01:53:32.585Z,52.64
2018-02-25T01:56:00.032Z,52.21
2018-02-25T01:58:27.506Z,52.03
2018-02-25T02:00:54.968Z,52.08
2018-02-25T02:03:22.446Z,51.69
2018-02-25T02:05:49.936Z,51.86
2018-02-25T02:08:17.486Z,51.73
2018-02-25T02:10:44.952Z,51.55
2018-02-25T02:13:12.415Z,51.52
2018-02-25T02:15:39.880Z,51.44
2018-02-25T02:18:07.336Z,51.09
2018-02-25T02:20:34.867Z,51.04
2018-02-25T02:23:02.331Z,51.40
2018-02-25T02:25:29.862Z,51.33
2018-02-25T02:27:57.317Z,51.58
2018-02-25T02:30:24.850Z,51.18
2018-02-25T02:32:52.342Z,51.08
2018-02-25T02:35:19.808Z,51.05
2018-02-25T02:37:47.291Z,51.24
2018-02-25T02:40:14.742Z,50.99
2018-02-25T02:42:42.242Z,51.16
2018-02-25T02:45:09.780Z,51.00
2018-02-25T02:47:37.277Z,51.30
2018-02-25T02:50:04.791Z,51.42
2018-02-25T02:52:32.313Z,52.25
2018-02-25T02:54:59.818Z,52.00
2018-02-25T02:57:27.364Z,52.39
2018-02-25T02:59:54.866Z,52.61
2018-02-25T03:02:22.306Z,52.40
2018-02-25T03:04:49.767Z,52.42
2018-02-25T03:07:17.280Z,52.54
2018-02-25T03:09:44.776Z,52.52
2018-02-25T03:12:12.335Z,52.42
2018-02-25T03:14:40.721Z,52.44
2018-02-25T03:17:08.793Z,52.38
2018-02-25T03:19:36.367Z,52.69
2018-02-25T03:22:03.856Z,52.53
2018-02-25T03:24:31.328Z,52.82
2018-02-25T03:26:58.799Z,52.61
2018-02-25T03:29:26.296Z,52.69
2018-02-25T03:31:53.776Z,53.09
2018-02-25T03:34:21.328Z,52.94
2018-02-25T03:36:48.787Z,53.30
2018-02-25T03:39:16.362Z,53.23
2018-02-25T03:41:43.849Z,53.47
2018-02-25T03:44:11.306Z,53.59
2018-02-25T03:46:38.891Z,53.59
2018-02-25T03:49:06.835Z,53.44
2018-02-25T03:51:34.309Z,53.83
2018-02-25T03:54:01.836Z,53.74
2018-02-25T03:56:29.349Z,53.78
2018-02-25T03:58:56.821Z,53.83
2018-02-25T04:01:24.316Z,54.31
2018-02-25T04:03:51.845Z,54.52
2018-02-25T04:06:19.458Z,54.55
2018-02-25T04:08:46.963Z,54.31
2018-02-25T04:11:14.549Z,54.49
2018-02-25T04:13:42.015Z,54.57
2018-02-25T04:16:09.475Z,54.73
2018-02-25T04:18:37.038Z,54.85
2018-02-25T04:21:04.502Z,55.23
2018-02-25T04:23:32.037Z,55.10
2018-02-25T04:25:59.479Z,55.10
2018-02-25T04:28:26.939Z,55.39
2018-02-25T04:30:54.401Z,55.60
2018-02-25T04:33:21.943Z,55.67
2018-02-25T04:35:49.450Z,55.80
2018-02-25T04:38:16.997Z,55.89
2018-02-25T04:40:44.471Z,56.15
2018-02-25T04:43:11.931Z,55.78
2018-02-25T04:45:39.465Z,55.92
2018-02-25T04:48:07.058Z,55.91
2018-02-25T04:50:34.540Z,56.06
2018-02-25T04:53:02.035Z,56.49
2018-02-25T04:55:29.492Z,56.75
2018-02-25T04:57:56.955Z,57.03
2018-02-25T05:00:24.425Z,56.57
2018-02-25T05:02:51.959Z,56.53
2018-02-25T05:05:19.398Z,56.75
2018-02-25T05:07:46.885Z,57.03
2018-02-25T05:10:14.473Z,57.16
2018-02-25T05:12:41.962Z,57.22
2018-02-25T05:15:09.459Z,57.23
2018-02-25T05:17:36.935Z,57.23
2018-02-25T05:20:04.551Z,57.28
2018-02-25T05:22:41.730Z,56.91
2018-02-25T05:25:09.233Z,57.75
2018-02-25T05:27:36.765Z,57.98
2018-02-25T05:30:04.477Z,58.20
2018-02-25T05:32:32.283Z,57.95
2018-02-25T05:34:59.898Z,57.78
2018-02-25T05:37:27.501Z,57.90
2018-02-25T05:39:58.595Z,57.77
2018-02-25T05:42:26.111Z,57.76
2018-02-25T05:44:53.586Z,58.13
2018-02-25T05:47:21.035Z,58.06
2018-02-25T05:49:48.575Z,58.63
2018-02-25T05:52:16.235Z,58.36
2018-02-25T05:54:43.768Z,58.55
2018-02-25T05:57:11.182Z,58.22
2018-02-25T05:59:38.713Z,58.25
2018-02-25T06:02:06.191Z,58.46
2018-02-25T06:04:33.680Z,58.58
2018-02-25T06:07:01.165Z,58.27
2018-02-25T06:09:28.634Z,58.06
2018-02-25T06:11:56.328Z,58.06
2018-02-25T06:14:23.824Z,57.94
2018-02-25T06:16:51.318Z,58.05
2018-02-25T06:19:18.780Z,58.11
2018-02-25T06:21:46.274Z,58.58
2018-02-25T06:24:13.779Z,58.50
2018-02-25T06:26:41.256Z,58.42
2018-02-25T06:29:08.708Z,58.46
2018-02-25T06:31:36.250Z,58.57
2018-02-25T06:34:03.724Z,58.84
2018-02-25T06:36:31.205Z,59.03
2018-02-25T06:38:58.860Z,59.32
2018-02-25T06:41:26.382Z,59.55
2018-02-25T06:43:53.890Z,59.64
2018-02-25T06:46:21.502Z,59.75
2018-02-25T06:48:49.063Z,59.70
2018-02-25T06:51:16.736Z,59.60
2018-02-25T06:53:44.458Z,59.75
2018-02-25T06:56:12.047Z,59.62
2018-02-25T06:58:39.539Z,60.14
2018-02-25T07:01:07.741Z,60.26
2018-02-25T07:03:35.237Z,60.01
2018-02-25T07:06:02.752Z,60.46
2018-02-25T07:08:30.309Z,59.81
2018-02-25T07:10:57.866Z,60.08
2018-02-25T07:13:25.348Z,60.03
2018-02-25T07:15:52.837Z,60.05
2018-02-25T07:18:20.321Z,60.12
2018-02-25T07:20:47.776Z,60.12
2018-02-25T07:23:15.233Z,60.15
2018-02-25T07:25:42.708Z,60.25
2018-02-25T07:28:10.252Z,60.27
2018-02-25T07:30:37.690Z,59.93
2018-02-25T07:33:05.196Z,60.46
2018-02-25T07:35:32.639Z,60.54
2018-02-25T07:38:00.245Z,60.15
2018-02-25T07:40:27.772Z,59.99
2018-02-25T07:42:55.218Z,60.41
2018-02-25T07:45:23.046Z,60.95
2018-02-25T07:47:50.521Z,60.48
2018-02-25T07:50:18.005Z,61.07
2018-02-25T07:52:45.518Z,60.96
2018-02-25T07:55:13.141Z,60.70
2018-02-25T07:57:40.628Z,60.30
2018-02-25T08:00:08.075Z,61.59
2018-02-25T08:02:35.546Z,61.56
2018-02-25T08:05:03.112Z,59.60
2018-02-25T08:07:30.560Z,58.36
2018-02-25T08:09:58.016Z,58.22
2018-02-25T08:12:25.502Z,58.37
2018-02-25T08:14:53.087Z,57.80
2018-02-25T08:17:20.576Z,57.76
2018-02-25T08:19:48.048Z,57.34
2018-02-25T08:22:15.528Z,56.79
2018-02-25T08:24:43.026Z,56.81
2018-02-25T08:27:10.490Z,56.02
2018-02-25T08:29:37.946Z,55.62
2018-02-25T08:32:05.665Z,54.39
2018-02-25T08:34:33.477Z,53.92
2018-02-25T08:37:00.950Z,54.12
2018-02-25T08:39:28.518Z,54.11
2018-02-25T08:41:56.341Z,54.61
2018-02-25T08:44:23.855Z,54.54
2018-02-25T08:46:51.350Z,54.51
2018-02-25T08:49:18.910Z,54.17
2018-02-25T08:51:46.380Z,54.08
2018-02-25T08:54:13.854Z,54.04
2018-02-25T08:56:41.460Z,54.01
2018-02-25T08:59:09.064Z,53.68
2018-02-25T09:01:36.558Z,52.70
2018-02-25T09:04:04.032Z,52.52
2018-02-25T09:06:31.574Z,51.58
2018-02-25T09:08:59.164Z,52.20
2018-02-25T09:11:26.646Z,52.06
2018-02-25T09:13:54.204Z,51.74
2018-02-25T09:16:21.677Z,52.13
2018-02-25T09:18:49.350Z,52.22
2018-02-25T09:21:16.843Z,51.91
2018-02-25T09:23:44.360Z,50.84
2018-02-25T09:26:11.944Z,50.51
2018-02-25T09:28:39.785Z,48.77
2018-02-25T09:31:07.346Z,44.15
2018-02-25T09:33:34.802Z,37.12
2018-02-25T09:36:02.284Z,32.69
2018-02-25T09:38:29.730Z,27.97
2018-02-25T09:40:57.206Z,26.79
2018-02-25T09:43:24.786Z,24.14
2018-02-25T09:45:52.336Z,21.54
2018-02-25T09:48:19.794Z,22.32
2018-02-25T09:50:47.336Z,20.26
2018-02-25T09:53:15.028Z,19.42
2018-02-25T09:55:42.550Z,17.80
2018-02-25T09:58:10.113Z,18.00
2018-02-25T10:00:37.875Z,17.62
2018-02-25T10:03:05.438Z,16.87
2018-02-25T10:05:33.066Z,17.42
2018-02-25T10:08:00.627Z,17.96
2018-02-25T10:10:28.679Z,19.19
2018-02-25T10:12:56.231Z,18.20
2018-02-25T10:15:23.709Z,17.50
2018-02-25T10:17:51.171Z,18.29
2018-02-25T10:20:19.673Z,17.05
2018-02-25T10:22:47.193Z,17.42
2018-02-25T10:25:15.854Z,17.87
2018-02-25T10:27:43.978Z,16.38
2018-02-25T10:30:11.555Z,17.28
2018-02-25T10:32:39.092Z,18.13
2018-02-25T10:35:06.685Z,18.54
2018-02-25T10:37:34.618Z,19.67
2018-02-25T10:40:02.099Z,19.77
2018-02-25T10:42:29.771Z,20.78
2018-02-25T10:44:57.361Z,21.51
2018-02-25T10:47:24.889Z,21.26
2018-02-25T10:49:52.392Z,21.74
2018-02-25T10:52:20.173Z,22.68
2018-02-25T10:54:47.847Z,22.82
2018-02-25T10:57:15.467Z,23.90
2018-02-25T10:59:43.037Z,24.44
2018-02-25T11:02:10.526Z,25.16
2018-02-25T11:04:38.101Z,25.82
2018-02-25T11:07:05.913Z,26.31
2018-02-25T11:09:33.598Z,26.83
2018-02-25T11:12:02.105Z,26.71
2018-02-25T11:14:29.662Z,24.77
2018-02-25T11:16:57.261Z,25.28
2018-02-25T11:19:24.820Z,25.08
2018-02-25T11:21:52.321Z,26.17
2018-02-25T11:24:19.941Z,26.29
2018-02-25T11:26:47.495Z,27.50
2018-02-25T11:29:15.061Z,26.88
2018-02-25T11:31:42.646Z,27.16
2018-02-25T11:34:10.318Z,26.92
2018-02-25T11:36:37.894Z,27.51
2018-02-25T11:39:05.417Z,27.63
2018-02-25T11:41:32.928Z,26.96
2018-02-25T11:44:00.719Z,26.62
2018-02-25T11:46:28.260Z,26.59
2018-02-25T11:48:55.815Z,27.03
2018-02-25T11:51:23.337Z,27.12
2018-02-25T11:53:50.957Z,32.22
2018-02-25T11:56:18.546Z,27.43
2018-02-25T11:58:46.045Z,27.48
2018-02-25T12:01:14.007Z,26.77
2018-02-25T12:03:41.551Z,26.55
2018-02-25T12:06:09.135Z,25.23
2018-02-25T12:08:36.611Z,24.99
2018-02-25T12:11:04.091Z,25.12
2018-02-25T12:13:31.648Z,25.39
2018-02-25T12:15:59.147Z,24.73
2018-02-25T12:18:26.685Z,24.30
2018-02-25T12:20:54.165Z,23.85
2018-02-25T12:23:21.706Z,23.28
2018-02-25T12:25:49.209Z,23.16
2018-02-25T12:28:16.798Z,23.28
2018-02-25T12:30:44.333Z,23.04
2018-02-25T12:33:11.813Z,21.74
2018-02-25T12:35:39.505Z,20.61
2018-02-25T12:38:07.104Z,19.50
2018-02-25T12:40:34.690Z,20.65
2018-02-25T12:43:03.222Z,19.95
2018-02-25T12:45:30.724Z,19.81
2018-02-25T12:47:58.295Z,19.22
2018-02-25T12:50:25.889Z,20.35
2018-02-25T12:52:53.662Z,20.03
2018-02-25T12:55:21.487Z,19.45
2018-02-25T12:57:48.938Z,19.10
2018-02-25T13:00:16.481Z,20.34
2018-02-25T13:02:43.987Z,18.91
2018-02-25T13:05:11.505Z,18.99
2018-02-25T13:07:39.267Z,19.85
2018-02-25T13:10:06.994Z,19.58
2018-02-25T13:12:34.491Z,19.22
2018-02-25T13:15:02.039Z,18.87
2018-02-25T13:17:29.868Z,18.27
2018-02-25T13:19:57.489Z,18.25
2018-02-25T13:22:25.080Z,17.71
2018-02-25T13:24:53.083Z,17.32
2018-02-25T13:27:20.875Z,17.53
2018-02-25T13:29:48.488Z,17.75
2018-02-25T13:32:17.532Z,18.51
2018-02-25T13:34:45.050Z,19.78
2018-02-25T13:37:12.564Z,19.70
2018-02-25T13:39:40.195Z,19.18
2018-02-25T13:42:07.851Z,19.24
2018-02-25T13:44:35.488Z,18.63
2018-02-25T13:47:03.767Z,18.59
2018-02-25T13:49:31.446Z,18.73
2018-02-25T13:51:59.075Z,17.45
2018-02-25T13:54:26.708Z,18.45
2018-02-25T13:56:54.259Z,18.18
2018-02-25T13:59:21.869Z,17.71
2018-02-25T14:01:49.409Z,17.88
2018-02-25T14:04:17.254Z,19.76
2018-02-25T14:06:45.019Z,19.84
2018-02-25T14:09:12.602Z,20.08
2018-02-25T14:11:40.221Z,21.15
2018-02-25T14:14:07.989Z,21.62
2018-02-25T14:16:35.651Z,22.78
2018-02-25T14:19:03.138Z,22.87
2018-02-25T14:21:30.676Z,23.27
2018-02-25T14:23:58.571Z,23.85
2018-02-25T14:26:26.232Z,24.67
2018-02-25T14:28:54.626Z,25.47
2018-02-25T14:31:23.111Z,26.65
2018-02-25T14:33:50.616Z,28.29
2018-02-25T14:36:18.153Z,29.36
2018-02-25T14:38:45.751Z,30.41
2018-02-25T14:41:13.325Z,30.94
2018-02-25T14:43:41.126Z,31.46
2018-02-25T14:46:08.687Z,31.73
2018-02-25T14:48:36.493Z,31.98
2018-02-25T14:51:06.874Z,32.14
2018-02-25T14:53:36.637Z,32.13
2018-02-25T14:56:04.450Z,32.25
2018-02-25T14:58:32.000Z,32.84
2018-02-25T15:00:59.780Z,32.60
2018-02-25T15:03:27.855Z,32.82
2018-02-25T15:05:57.466Z,33.26
2018-02-25T15:08:25.323Z,33.59
2018-02-25T15:10:53.422Z,33.44
2018-02-25T15:13:20.950Z,33.96
2018-02-25T15:15:48.448Z,33.93
2018-02-25T15:18:19.039Z,34.13
2018-02-25T15:20:46.878Z,34.03
2018-02-25T15:23:14.728Z,34.06
2018-02-25T15:25:43.522Z,34.23
2018-02-25T15:28:11.396Z,34.78
2018-02-25T15:30:40.122Z,34.99
2018-02-25T15:33:07.686Z,35.07
2018-02-25T15:35:35.289Z,35.26
2018-02-25T15:38:06.390Z,35.78
2018-02-25T15:40:35.814Z,35.74
2018-02-25T15:43:04.641Z,35.64
2018-02-25T15:45:32.714Z,36.27
2018-02-25T15:48:00.990Z,36.05
2018-02-25T15:50:31.845Z,35.80
2018-02-25T15:52:59.809Z,36.22
2018-02-25T15:55:28.888Z,36.39
2018-02-25T15:57:57.373Z,35.67
2018-02-25T16:00:25.067Z,36.09
2018-02-25T16:02:53.778Z,36.15
2018-02-25T16:05:22.405Z,36.04
2018-02-25T16:07:50.261Z,36.73
2018-02-25T16:10:17.884Z,37.05
2018-02-25T16:12:46.975Z,36.65
2018-02-25T16:15:14.500Z,36.24
2018-02-25T16:17:42.091Z,36.12
2018-02-25T16:20:11.550Z,37.23
2018-02-25T16:22:45.303Z,37.62
2018-02-25T16:25:13.106Z,37.64
2018-02-25T16:27:45.311Z,37.64
2018-02-25T16:30:13.014Z,37.38
2018-02-25T16:32:40.736Z,37.28
2018-02-25T16:35:08.560Z,37.50
2018-02-25T16:37:37.396Z,37.32
2018-02-25T16:40:05.261Z,37.10
2018-02-25T16:42:32.840Z,37.54
2018-02-25T16:45:01.805Z,37.87
2018-02-25T16:47:30.398Z,37.56
2018-02-25T16:49:58.680Z,37.87
2018-02-25T16:52:26.301Z,38.10
2018-02-25T16:54:54.498Z,37.72
2018-02-25T16:57:22.449Z,38.09
2018-02-25T16:59:50.281Z,38.40
2018-02-25T17:02:17.810Z,38.56
2018-02-25T17:04:45.738Z,37.86
2018-02-25T17:07:14.073Z,38.23
2018-02-25T17:09:41.724Z,38.42
2018-02-25T17:12:09.651Z,38.60
2018-02-25T17:14:37.253Z,38.51
2018-02-25T17:17:04.777Z,39.01
2018-02-25T17:19:32.364Z,38.95
2018-02-25T17:21:59.837Z,39.12
2018-02-25T17:24:27.398Z,39.41
2018-02-25T17:26:55.361Z,39.26
2018-02-25T17:29:22.932Z,39.76
2018-02-25T17:31:50.534Z,39.38
2018-02-25T17:34:21.006Z,38.92
2018-02-25T17:36:49.516Z,39.58
2018-02-25T17:39:17.040Z,39.83
2018-02-25T17:41:44.588Z,39.98
2018-02-25T17:44:12.054Z,40.06
2018-02-25T17:46:39.664Z,39.83
2018-02-25T17:49:07.212Z,39.96
2018-02-25T17:51:34.800Z,39.71
2018-02-25T17:54:02.360Z,39.96
2018-02-25T17:56:29.872Z,40.15
2018-02-25T17:58:57.449Z,40.81
2018-02-25T18:01:25.430Z,41.14
2018-02-25T18:03:52.922Z,40.85
2018-02-25T18:06:20.471Z,41.01
2018-02-25T18:08:48.077Z,41.38
2018-02-25T18:11:15.726Z,41.19
2018-02-25T18:13:43.295Z,41.07
2018-02-25T18:16:10.958Z,41.77
2018-02-25T18:18:38.583Z,42.05
2018-02-25T18:21:06.837Z,42.02
2018-02-25T18:23:34.442Z,42.03
2018-02-25T18:26:02.086Z,42.06
2018-02-25T18:28:29.576Z,42.24
2018-02-25T18:30:57.126Z,42.23
2018-02-25T18:33:24.619Z,42.68
2018-02-25T18:35:52.110Z,42.79
2018-02-25T18:38:19.700Z,42.89
2018-02-25T18:40:47.168Z,43.35
2018-02-25T18:43:14.763Z,43.13
2018-02-25T18:45:42.300Z,43.37
2018-02-25T18:48:09.808Z,43.63
2018-02-25T18:50:37.404Z,43.01
2018-02-25T18:53:04.884Z,42.97
2018-02-25T18:55:32.486Z,43.13
2018-02-25T18:58:00.119Z,43.09
2018-02-25T19:00:27.624Z,43.14
2018-02-25T19:03:00.950Z,43.11
2018-02-25T19:05:28.474Z,43.04
2018-02-25T19:07:56.289Z,43.11
2018-02-25T19:10:23.775Z,43.11
2018-02-25T19:12:51.338Z,42.98
2018-02-25T19:15:18.833Z,42.87
2018-02-25T19:17:46.332Z,44.12
2018-02-25T19:20:13.834Z,43.03
2018-02-25T19:22:41.339Z,43.05
2018-02-25T19:25:08.850Z,43.19
2018-02-25T19:27:36.454Z,43.25
2018-02-25T19:30:04.047Z,43.20
2018-02-25T19:32:31.563Z,43.45
2018-02-25T19:34:59.040Z,43.57
2018-02-25T19:37:32.173Z,43.93
2018-02-25T19:40:01.638Z,43.88
2018-02-25T19:42:29.210Z,44.05
2018-02-25T19:44:56.755Z,44.19
2018-02-25T19:47:24.434Z,44.33
2018-02-25T19:49:52.233Z,44.34
2018-02-25T19:52:19.870Z,44.52
2018-02-25T19:54:48.258Z,44.55
2018-02-25T19:57:15.864Z,44.42
2018-02-25T19:59:43.449Z,44.58
2018-02-25T20:02:11.103Z,44.49
2018-02-25T20:04:38.611Z,44.73
2018-02-25T20:07:06.209Z,44.76
2018-02-25T20:09:33.758Z,44.86
2018-02-25T20:12:01.325Z,45.04
2018-02-25T20:14:28.827Z,44.76
2018-02-25T20:16:56.475Z,45.16
2018-02-25T20:19:24.033Z,45.30
2018-02-25T20:21:51.563Z,45.08
2018-02-25T20:24:19.137Z,45.57
2018-02-25T20:26:46.723Z,45.62
2018-02-25T20:29:14.656Z,45.91
2018-02-25T20:31:42.201Z,45.78
2018-02-25T20:34:09.726Z,45.77
2018-02-25T20:36:37.262Z,45.63
2018-02-25T20:39:04.801Z,45.79
2018-02-25T20:41:32.390Z,46.08
2018-02-25T20:44:01.182Z,45.95
2018-02-25T20:46:32.598Z,46.06
2018-02-25T20:49:01.578Z,45.96
2018-02-25T20:51:30.273Z,45.87
2018-02-25T20:53:58.009Z,45.93
2018-02-25T20:56:26.888Z,45.92
2018-02-25T20:58:54.497Z,46.09
2018-02-25T21:01:22.052Z,46.26
2018-02-25T21:03:51.237Z,46.10
2018-02-25T21:06:19.203Z,46.39
2018-02-25T21:08:46.802Z,46.65
2018-02-25T21:11:17.778Z,46.71
2018-02-25T21:13:45.953Z,47.06
2018-02-25T21:16:13.589Z,46.74
2018-02-25T21:18:41.164Z,46.92
2018-02-25T21:21:09.106Z,47.43
2018-02-25T21:23:36.818Z,47.53
2018-02-25T21:26:04.922Z,47.38
2018-02-25T21:28:33.328Z,47.49
2018-02-25T21:31:03.393Z,47.72
2018-02-25T21:33:31.496Z,47.94
2018-02-25T21:35:59.805Z,47.83
2018-02-25T21:38:28.571Z,47.73
2018-02-25T21:40:56.401Z,47.71
2018-02-25T21:43:23.964Z,48.10
2018-02-25T21:45:51.682Z,48.33
2018-02-25T21:48:19.775Z,48.12
2018-02-25T21:50:47.549Z,48.18
2018-02-25T21:53:15.124Z,48.03
2018-02-25T21:55:48.371Z,48.08
2018-02-25T22:01:24.143Z,48.44
2018-02-25T22:03:58.565Z,48.44
2018-02-25T22:06:26.231Z,48.42
2018-02-25T22:08:53.733Z,48.70
2018-02-25T22:11:21.308Z,48.55
2018-02-25T22:13:48.851Z,48.51
2018-02-25T22:16:17.788Z,48.69
2018-02-25T22:18:45.506Z,48.30
2018-02-25T22:21:12.969Z,48.82
2018-02-25T22:23:40.461Z,49.00
2018-02-25T22:26:07.919Z,49.21
2018-02-25T22:28:35.389Z,49.47
2018-02-25T22:31:02.846Z,49.36
2018-02-25T22:33:30.325Z,49.39
2018-02-25T22:35:57.889Z,51.77
2018-02-25T22:38:25.365Z,49.72
2018-02-25T22:40:52.824Z,49.59
2018-02-25T22:43:20.313Z,49.71
2018-02-25T22:45:47.826Z,49.79
2018-02-25T22:48:15.355Z,49.71
2018-02-25T22:50:42.859Z,49.65
2018-02-25T22:53:10.577Z,49.44
2018-02-25T22:55:38.640Z,49.69
2018-02-25T22:58:06.345Z,49.42
2018-02-25T23:00:33.928Z,49.44
2018-02-25T23:03:01.387Z,49.31
2018-02-25T23:05:28.844Z,49.34
2018-02-25T23:07:56.595Z,49.40
2018-02-25T23:10:24.053Z,49.46
2018-02-25T23:12:56.627Z,49.65
2018-02-25T23:15:24.172Z,49.77
2018-02-25T23:32:09.766Z,48.69
2018-02-25T23:34:37.464Z,48.14
2018-02-25T23:37:04.909Z,48.07
2018-02-25T23:39:32.375Z,48.16
2018-02-25T23:41:59.850Z,48.23
2018-02-25T23:44:27.286Z,48.28
2018-02-25T23:46:54.753Z,48.16
2018-02-25T23:49:22.299Z,48.07
2018-02-25T23:51:50.069Z,47.95
2018-02-25T23:54:18.241Z,48.07
2018-02-25T23:56:45.684Z,48.61
2018-02-25T23:59:14.515Z,48.94
